Time;durP1;ratioP1;P1;durP2;ratioP2;P2;SDS_P1;SDS_P2;PMS_P1;PMS_P2;Temp;Humidity;BMP_temperature;BMP_pressure;BME280_temperature;BME280_humidity;BME280_pressure;Samples;Min_cycle;Max_cycle;Signal;HPM_P1;HPM_P2
2021/06/30 00:02:05;;;;;;;8.38;5.28;;;15.90;99.90;;;;;;5023993;28;20031;-60
2021/06/30 00:04:31;;;;;;;7.20;5.65;;;15.90;99.90;;;;;;5029047;28;20521;-65
2021/06/30 00:06:56;;;;;;;11.50;6.55;;;15.80;99.90;;;;;;5027875;28;20025;-64
2021/06/30 00:09:22;;;;;;;12.65;7.07;;;15.70;99.90;;;;;;5027086;28;20406;-64
2021/06/30 00:11:48;;;;;;;9.77;6.90;;;15.70;99.90;;;;;;5022547;28;20034;-65
2021/06/30 00:14:14;;;;;;;9.35;6.95;;;15.60;99.90;;;;;;5028231;28;20553;-63
2021/06/30 00:16:41;;;;;;;11.45;8.45;;;15.60;99.90;;;;;;5029929;28;20025;-65
2021/06/30 00:19:09;;;;;;;11.45;8.20;;;15.60;99.90;;;;;;5034950;28;20017;-64
2021/06/30 00:21:35;;;;;;;9.77;7.72;;;15.60;99.90;;;;;;5041858;28;20897;-65
2021/06/30 00:24:01;;;;;;;10.18;8.80;;;15.60;99.90;;;;;;5026786;28;20029;-66
2021/06/30 00:26:27;;;;;;;7.82;7.03;;;15.60;99.90;;;;;;5027296;28;20462;-65
2021/06/30 00:28:52;;;;;;;6.07;5.47;;;15.60;99.90;;;;;;5029587;28;20095;-63
2021/06/30 00:31:19;;;;;;;7.70;5.38;;;15.50;99.90;;;;;;5027640;28;20033;-64
2021/06/30 00:33:45;;;;;;;5.43;4.85;;;15.40;99.90;;;;;;5028894;28;20087;-64
2021/06/30 00:36:14;;;;;;;5.10;3.90;;;15.40;99.90;;;;;;5026908;28;20021;-65
2021/06/30 00:38:40;;;;;;;5.35;4.07;;;15.40;99.90;;;;;;5029707;28;20021;-65
2021/06/30 00:41:06;;;;;;;3.83;2.63;;;15.30;99.90;;;;;;5036367;28;20585;-65
2021/06/30 00:43:31;;;;;;;5.60;2.70;;;15.20;99.90;;;;;;5041850;28;20087;-65
2021/06/30 00:45:57;;;;;;;4.93;2.63;;;15.20;99.90;;;;;;5031208;28;20057;-65
2021/06/30 00:48:23;;;;;;;5.18;2.70;;;15.20;99.90;;;;;;5032308;28;20052;-65
2021/06/30 00:50:48;;;;;;;2.97;2.67;;;15.20;99.90;;;;;;5027727;28;20025;-63
2021/06/30 00:53:14;;;;;;;5.45;3.22;;;15.10;99.90;;;;;;5028760;28;20459;-65
2021/06/30 00:55:40;;;;;;;8.18;3.25;;;15.10;99.90;;;;;;5026331;28;20022;-66
2021/06/30 00:58:07;;;;;;;4.32;2.85;;;15.10;99.90;;;;;;5025204;28;20483;-60
2021/06/30 01:00:33;;;;;;;3.78;3.13;;;15.10;99.90;;;;;;5027842;28;20141;-65
2021/06/30 01:02:58;;;;;;;6.38;3.40;;;15.00;99.90;;;;;;5028763;28;20479;-66
2021/06/30 01:05:24;;;;;;;6.40;3.53;;;15.00;99.90;;;;;;5030974;28;20592;-64
2021/06/30 01:07:49;;;;;;;4.00;3.55;;;15.00;99.90;;;;;;5028439;28;20026;-64
2021/06/30 01:10:16;;;;;;;4.07;3.28;;;15.00;99.90;;;;;;5028046;28;20060;-64
2021/06/30 01:12:42;;;;;;;5.18;4.18;;;15.00;99.90;;;;;;5028206;28;20037;-65
2021/06/30 01:15:10;;;;;;;10.75;4.90;;;15.00;99.90;;;;;;5033472;28;20059;-64
2021/06/30 01:17:36;;;;;;;13.30;6.95;;;15.00;99.90;;;;;;5023878;28;20029;-66
2021/06/30 01:20:03;;;;;;;11.55;8.52;;;15.00;99.90;;;;;;5032050;28;20032;-65
2021/06/30 01:22:28;;;;;;;9.57;8.57;;;15.00;99.90;;;;;;5028806;28;20418;-65
2021/06/30 01:24:54;;;;;;;12.27;8.48;;;15.00;99.90;;;;;;5026154;28;20021;-65
2021/06/30 01:27:29;;;;;;;11.07;9.13;;;15.00;99.90;;;;;;5025867;28;20025;-65
2021/06/30 01:29:55;;;;;;;9.68;8.68;;;15.00;99.90;;;;;;5028987;28;20017;-65
2021/06/30 01:32:21;;;;;;;10.43;7.63;;;15.10;99.90;;;;;;5030485;28;20031;-65
2021/06/30 01:34:47;;;;;;;9.82;8.02;;;15.10;99.90;;;;;;5027512;28;20022;-65
2021/06/30 01:37:13;;;;;;;10.93;9.30;;;15.10;99.90;;;;;;5029373;28;20022;-65
2021/06/30 01:39:39;;;;;;;9.75;8.05;;;15.10;99.90;;;;;;5035735;28;20140;-66
2021/06/30 01:42:04;;;;;;;15.00;9.18;;;15.00;99.90;;;;;;5028794;28;20097;-64
2021/06/30 01:44:30;;;;;;;9.90;8.77;;;15.00;99.90;;;;;;5023591;28;20559;-63
2021/06/30 01:46:56;;;;;;;12.77;9.10;;;15.00;99.90;;;;;;5029286;28;20048;-64
2021/06/30 01:49:22;;;;;;;10.93;9.35;;;15.00;99.90;;;;;;5029662;28;20045;-65
2021/06/30 01:51:48;;;;;;;11.50;10.25;;;15.00;99.90;;;;;;5027653;28;20479;-64
2021/06/30 01:54:15;;;;;;;13.25;10.02;;;15.10;99.90;;;;;;5027708;28;20033;-65
2021/06/30 01:56:42;;;;;;;16.30;10.65;;;15.10;99.90;;;;;;5028550;28;20068;-64
2021/06/30 01:59:12;;;;;;;11.98;10.25;;;15.10;99.90;;;;;;5031864;28;20052;-65
2021/06/30 02:01:39;;;;;;;15.15;11.68;;;15.10;99.90;;;;;;5025602;28;20029;-64
2021/06/30 02:04:05;;;;;;;14.88;11.43;;;15.10;99.90;;;;;;5028568;28;20116;-57
2021/06/30 02:06:40;;;;;;;15.73;11.52;;;15.20;99.90;;;;;;5024421;28;20112;-64
2021/06/30 02:09:11;;;;;;;16.25;11.68;;;15.10;99.90;;;;;;5029663;28;20756;-63
2021/06/30 02:11:38;;;;;;;12.98;11.57;;;15.20;99.90;;;;;;5027578;28;20017;-63
2021/06/30 02:14:08;;;;;;;14.98;11.98;;;15.20;99.90;;;;;;5027012;28;20099;-62
2021/06/30 02:16:34;;;;;;;13.07;11.15;;;15.20;99.90;;;;;;5027729;28;20478;-64
2021/06/30 02:19:04;;;;;;;14.02;10.93;;;15.20;99.90;;;;;;5028049;28;20026;-62
2021/06/30 02:21:31;;;;;;;13.23;10.70;;;15.20;99.90;;;;;;5027211;28;20559;-62
2021/06/30 02:23:57;;;;;;;19.92;11.55;;;15.20;99.90;;;;;;5026038;28;20483;-64
2021/06/30 02:26:23;;;;;;;12.32;10.95;;;15.20;99.90;;;;;;5027822;28;20045;-65
2021/06/30 02:28:49;;;;;;;17.17;10.82;;;15.20;99.90;;;;;;5024597;28;20044;-65
2021/06/30 02:31:16;;;;;;;12.70;9.80;;;15.20;99.90;;;;;;5028603;28;20036;-64
2021/06/30 02:33:43;;;;;;;11.63;10.43;;;15.20;99.90;;;;;;5029617;28;20042;-64
2021/06/30 02:36:09;;;;;;;13.27;10.23;;;15.30;99.90;;;;;;5025890;28;20028;-65
2021/06/30 02:38:34;;;;;;;16.65;10.38;;;15.20;99.90;;;;;;5029229;28;20034;-63
2021/06/30 02:41:00;;;;;;;12.10;9.77;;;15.20;99.90;;;;;;5030999;28;20445;-64
2021/06/30 02:43:26;;;;;;;15.20;12.05;;;15.10;99.90;;;;;;5029561;28;20025;-65
2021/06/30 02:45:51;;;;;;;14.23;10.25;;;15.10;99.90;;;;;;5034286;28;20029;-63
2021/06/30 02:48:17;;;;;;;18.85;10.85;;;15.00;99.90;;;;;;5029882;28;20044;-64
2021/06/30 02:50:42;;;;;;;15.35;11.73;;;15.00;99.90;;;;;;5029876;28;20577;-61
2021/06/30 02:53:08;;;;;;;20.27;10.75;;;15.00;99.90;;;;;;5035555;28;20537;-63
2021/06/30 02:55:34;;;;;;;12.80;10.35;;;15.00;99.90;;;;;;5030164;28;20030;-63
2021/06/30 02:57:59;;;;;;;18.67;11.25;;;15.00;99.90;;;;;;5031103;28;20018;-62
2021/06/30 03:00:26;;;;;;;13.82;10.75;;;15.00;99.90;;;;;;5031472;28;20021;-62
2021/06/30 03:02:52;;;;;;;17.63;11.02;;;15.00;99.90;;;;;;5033244;28;20029;-63
2021/06/30 03:05:18;;;;;;;18.25;11.32;;;14.90;99.90;;;;;;5029194;28;20091;-63
2021/06/30 03:07:44;;;;;;;22.58;12.68;;;14.90;99.90;;;;;;5030505;28;20443;-63
2021/06/30 03:10:12;;;;;;;18.70;13.18;;;14.90;99.90;;;;;;5028994;28;20111;-64
2021/06/30 03:12:39;;;;;;;36.33;14.32;;;14.90;99.90;;;;;;5029314;28;20065;-62
2021/06/30 03:15:06;;;;;;;26.52;14.05;;;14.80;99.90;;;;;;5035539;28;20029;-63
2021/06/30 03:17:34;;;;;;;47.33;14.88;;;14.80;99.90;;;;;;5027508;28;20103;-63
2021/06/30 03:20:01;;;;;;;32.10;16.88;;;14.80;99.90;;;;;;5030528;28;20029;-63
2021/06/30 03:22:27;;;;;;;23.10;14.60;;;14.80;99.90;;;;;;5031100;28;20033;-64
2021/06/30 03:24:53;;;;;;;22.67;15.38;;;14.80;99.90;;;;;;5031021;28;20116;-64
2021/06/30 03:27:20;;;;;;;20.33;13.75;;;14.70;99.90;;;;;;5028026;28;20058;-64
2021/06/30 03:29:46;;;;;;;21.92;14.30;;;14.70;99.90;;;;;;5029462;28;20037;-63
2021/06/30 03:32:11;;;;;;;16.48;12.88;;;14.70;99.90;;;;;;5028386;28;20046;-64
2021/06/30 03:34:37;;;;;;;15.20;12.90;;;14.60;99.90;;;;;;5031756;28;20053;-64
2021/06/30 03:37:03;;;;;;;16.92;12.60;;;14.60;99.90;;;;;;5030641;28;20029;-64
2021/06/30 03:39:28;;;;;;;18.75;12.88;;;14.60;99.90;;;;;;5029379;28;20033;-66
2021/06/30 03:41:54;;;;;;;21.15;12.80;;;14.60;99.90;;;;;;5030154;28;20714;-64
2021/06/30 03:44:19;;;;;;;21.27;12.82;;;14.60;99.90;;;;;;5027097;28;20045;-64
2021/06/30 03:46:45;;;;;;;15.82;12.40;;;14.50;99.90;;;;;;5032088;28;20111;-64
2021/06/30 03:49:11;;;;;;;23.02;13.98;;;14.50;99.90;;;;;;5032904;28;20033;-66
2021/06/30 03:51:36;;;;;;;18.00;14.18;;;14.50;99.90;;;;;;5030353;28;20516;-64
2021/06/30 03:54:02;;;;;;;25.55;14.40;;;14.40;99.90;;;;;;5038102;28;20045;-64
2021/06/30 03:56:28;;;;;;;19.63;12.73;;;14.40;99.90;;;;;;5027835;28;20124;-65
2021/06/30 03:58:55;;;;;;;21.08;12.70;;;14.40;99.90;;;;;;5030024;28;20052;-63
2021/06/30 04:01:22;;;;;;;18.75;12.50;;;14.40;99.90;;;;;;5030027;28;20060;-63
2021/06/30 04:03:53;;;;;;;18.33;11.38;;;14.30;99.90;;;;;;5034547;28;20029;-64
2021/06/30 04:06:20;;;;;;;20.90;12.73;;;14.40;99.90;;;;;;5025236;28;20064;-64
2021/06/30 04:08:46;;;;;;;16.83;12.73;;;14.30;99.90;;;;;;5028729;28;20049;-63
2021/06/30 04:11:11;;;;;;;12.98;10.90;;;14.40;99.90;;;;;;5028117;28;20439;-63
2021/06/30 04:13:37;;;;;;;19.20;11.10;;;14.40;99.90;;;;;;5028309;28;20017;-64
2021/06/30 04:16:02;;;;;;;22.02;12.50;;;14.40;99.90;;;;;;5027255;28;20491;-65
2021/06/30 04:18:28;;;;;;;14.85;10.98;;;14.40;99.90;;;;;;5030743;28;20387;-66
2021/06/30 04:20:54;;;;;;;13.95;11.50;;;14.50;99.90;;;;;;5029589;28;20026;-64
2021/06/30 04:23:19;;;;;;;18.75;11.82;;;14.60;99.90;;;;;;5034467;28;20447;-64
2021/06/30 04:25:47;;;;;;;14.43;10.15;;;14.70;99.90;;;;;;5025918;28;20030;-65
2021/06/30 04:28:13;;;;;;;10.90;9.70;;;14.90;99.90;;;;;;5030336;28;20030;-64
2021/06/30 04:30:40;;;;;;;16.60;9.63;;;15.10;99.90;;;;;;5031038;28;20487;-65
2021/06/30 04:33:05;;;;;;;15.65;8.98;;;15.50;99.90;;;;;;5028411;28;20399;-64
2021/06/30 04:35:31;;;;;;;11.93;8.55;;;15.70;99.90;;;;;;5033457;28;20040;-62
2021/06/30 04:37:56;;;;;;;11.88;8.57;;;16.00;99.90;;;;;;5028205;28;20172;-65
2021/06/30 04:40:22;;;;;;;14.45;7.90;;;16.10;99.90;;;;;;5028982;28;20032;-61
2021/06/30 04:42:48;;;;;;;12.73;8.60;;;16.30;99.90;;;;;;5027949;28;20041;-64
2021/06/30 04:45:13;;;;;;;19.40;9.27;;;16.40;99.90;;;;;;5029159;28;20036;-60
2021/06/30 04:47:39;;;;;;;8.10;7.30;;;16.40;99.90;;;;;;5027452;28;20032;-64
2021/06/30 04:50:05;;;;;;;11.15;7.68;;;16.50;99.90;;;;;;5029213;28;20026;-64
2021/06/30 04:52:31;;;;;;;11.80;7.40;;;16.80;99.90;;;;;;5029398;28;20108;-64
2021/06/30 04:54:57;;;;;;;7.00;5.03;;;17.30;99.90;;;;;;5031825;28;20103;-65
2021/06/30 04:57:22;;;;;;;9.80;5.47;;;18.20;99.90;;;;;;5027615;28;20033;-64
2021/06/30 04:59:48;;;;;;;10.48;4.85;;;18.60;99.90;;;;;;5028304;28;20025;-64
2021/06/30 05:02:15;;;;;;;6.40;4.55;;;18.60;99.90;;;;;;5027348;28;20032;-63
2021/06/30 05:04:41;;;;;;;5.97;4.63;;;18.40;99.90;;;;;;5030893;28;20040;-65
2021/06/30 05:07:07;;;;;;;13.15;6.93;;;18.20;99.90;;;;;;5028366;28;20033;-65
2021/06/30 05:09:32;;;;;;;17.52;7.72;;;17.90;99.90;;;;;;5027416;28;20049;-65
2021/06/30 05:11:58;;;;;;;8.60;5.82;;;18.00;99.90;;;;;;5028871;28;20075;-64
2021/06/30 05:14:23;;;;;;;10.60;7.25;;;17.90;99.90;;;;;;5023079;28;20494;-64
2021/06/30 05:16:49;;;;;;;8.02;6.72;;;17.90;99.90;;;;;;5025497;28;20018;-64
2021/06/30 05:19:15;;;;;;;10.68;8.10;;;17.90;99.90;;;;;;5028145;28;20018;-64
2021/06/30 05:21:40;;;;;;;8.23;7.43;;;18.20;99.90;;;;;;5029942;28;20024;-64
2021/06/30 05:24:07;;;;;;;9.68;5.88;;;18.20;99.90;;;;;;5035636;28;20033;-63
2021/06/30 05:26:32;;;;;;;12.00;6.25;;;18.00;99.90;;;;;;5026692;28;20071;-65
2021/06/30 05:28:58;;;;;;;8.00;6.05;;;17.70;99.90;;;;;;5027703;28;20049;-64
2021/06/30 05:31:23;;;;;;;7.78;6.57;;;17.50;99.90;;;;;;5027678;28;20029;-62
2021/06/30 05:33:49;;;;;;;10.10;6.22;;;17.50;99.90;;;;;;5028002;28;20525;-63
2021/06/30 05:36:15;;;;;;;6.22;5.63;;;17.40;99.90;;;;;;5027209;28;20037;-65
2021/06/30 05:38:40;;;;;;;8.55;5.88;;;17.40;99.90;;;;;;5027735;28;20035;-65
2021/06/30 05:41:06;;;;;;;9.30;5.15;;;17.60;99.90;;;;;;5027267;28;20563;-64
2021/06/30 05:43:31;;;;;;;12.32;5.63;;;17.60;99.90;;;;;;5025650;28;20037;-65
2021/06/30 05:45:57;;;;;;;11.88;4.30;;;17.80;99.90;;;;;;5028980;28;20029;-63
2021/06/30 05:48:23;;;;;;;13.82;4.30;;;18.10;99.90;;;;;;5028341;28;20084;-65
2021/06/30 05:50:48;;;;;;;7.18;4.45;;;18.40;99.90;;;;;;5027651;28;20029;-64
2021/06/30 05:53:14;;;;;;;4.45;3.85;;;18.50;99.90;;;;;;5026560;28;20030;-60
2021/06/30 05:55:40;;;;;;;9.30;4.43;;;18.30;99.90;;;;;;5024056;28;20109;-64
2021/06/30 05:58:05;;;;;;;4.90;3.85;;;18.30;99.90;;;;;;5027941;28;20051;-64
2021/06/30 06:00:31;;;;;;;5.20;3.67;;;18.10;99.90;;;;;;5034015;28;20171;-63
2021/06/30 06:02:57;;;;;;;5.03;3.78;;;18.00;99.90;;;;;;5038152;28;20029;-65
2021/06/30 06:05:22;;;;;;;5.60;3.67;;;17.90;99.90;;;;;;5026947;28;20471;-62
2021/06/30 06:07:48;;;;;;;4.05;3.42;;;17.90;99.90;;;;;;5032222;28;20033;-64
2021/06/30 06:10:13;;;;;;;5.25;4.15;;;17.80;99.90;;;;;;5032240;28;20032;-64
2021/06/30 06:12:39;;;;;;;8.20;4.80;;;17.70;99.90;;;;;;5029501;28;20033;-64
2021/06/30 06:15:07;;;;;;;12.43;4.05;;;17.60;99.90;;;;;;5031420;28;20402;-65
2021/06/30 06:17:32;;;;;;;6.80;4.80;;;17.30;99.90;;;;;;5030869;28;20033;-65
2021/06/30 06:19:58;;;;;;;5.70;4.30;;;17.20;99.90;;;;;;5028900;28;20390;-65
2021/06/30 06:22:24;;;;;;;5.88;3.88;;;17.20;99.90;;;;;;5027787;28;20025;-64
2021/06/30 06:24:49;;;;;;;5.38;4.32;;;17.20;99.90;;;;;;5028108;28;20033;-64
2021/06/30 06:27:15;;;;;;;5.50;4.30;;;17.20;99.90;;;;;;5031810;28;20079;-60
2021/06/30 06:29:41;;;;;;;7.40;5.30;;;17.10;99.90;;;;;;5032482;28;20116;-64
2021/06/30 06:32:07;;;;;;;5.57;4.68;;;17.10;99.90;;;;;;5030824;28;20033;-65
2021/06/30 06:34:33;;;;;;;5.32;4.45;;;17.10;99.90;;;;;;5030297;28;20040;-65
2021/06/30 06:37:02;;;;;;;6.60;3.90;;;17.00;99.90;;;;;;5032345;28;20092;-63
2021/06/30 06:39:29;;;;;;;5.40;3.92;;;17.00;99.90;;;;;;5039032;28;20022;-64
2021/06/30 06:41:55;;;;;;;5.90;3.65;;;17.00;99.90;;;;;;5028888;28;20026;-63
2021/06/30 06:44:20;;;;;;;4.93;3.58;;;17.10;99.90;;;;;;5030330;28;20021;-65
2021/06/30 06:46:46;;;;;;;6.57;3.88;;;17.10;99.90;;;;;;5028004;28;20025;-64
2021/06/30 06:49:12;;;;;;;6.55;4.55;;;17.00;99.90;;;;;;5030004;28;20797;-66
2021/06/30 06:51:39;;;;;;;5.82;4.40;;;17.00;99.90;;;;;;5031541;28;20491;-65
2021/06/30 06:54:06;;;;;;;8.05;4.70;;;16.90;99.90;;;;;;5029832;28;20041;-68
2021/06/30 06:56:32;;;;;;;5.30;4.00;;;16.90;99.90;;;;;;5030981;28;20071;-63
2021/06/30 06:58:58;;;;;;;9.43;4.18;;;16.90;99.90;;;;;;5028236;28;20029;-64
2021/06/30 07:01:24;;;;;;;8.00;4.53;;;16.80;99.90;;;;;;5030533;28;20442;-64
2021/06/30 07:03:51;;;;;;;7.22;5.00;;;16.80;99.90;;;;;;5033054;28;20030;-66
2021/06/30 07:06:17;;;;;;;5.60;4.70;;;16.80;99.90;;;;;;5025760;28;20590;-65
2021/06/30 07:08:43;;;;;;;9.32;5.03;;;16.80;99.90;;;;;;5033569;28;20037;-66
2021/06/30 07:11:09;;;;;;;5.53;4.90;;;16.90;99.90;;;;;;5038198;28;20052;-65
2021/06/30 07:13:36;;;;;;;7.85;4.10;;;16.90;99.90;;;;;;5030491;28;20103;-65
2021/06/30 07:16:04;;;;;;;10.13;4.65;;;16.90;99.90;;;;;;5030077;28;20499;-64
2021/06/30 07:18:30;;;;;;;5.05;3.40;;;17.10;99.90;;;;;;5032337;28;20391;-65
2021/06/30 07:20:56;;;;;;;5.93;3.53;;;17.20;99.90;;;;;;5028846;28;20024;-64
2021/06/30 07:23:22;;;;;;;5.20;3.30;;;17.70;99.90;;;;;;5046539;28;20041;-65
2021/06/30 07:25:47;;;;;;;7.43;2.72;;;18.30;99.90;;;;;;5029402;28;20052;-65
2021/06/30 07:28:13;;;;;;;4.95;2.80;;;18.70;99.90;;;;;;5034482;28;20025;-65
2021/06/30 07:30:38;;;;;;;4.03;2.83;;;18.70;99.90;;;;;;5034122;28;20083;-62
2021/06/30 07:33:05;;;;;;;4.35;2.20;;;18.80;99.90;;;;;;5029849;28;20026;-65
2021/06/30 07:35:30;;;;;;;3.90;2.55;;;19.00;99.90;;;;;;5028257;28;20025;-64
2021/06/30 07:37:56;;;;;;;4.15;2.00;;;19.20;99.90;;;;;;5028378;28;20408;-65
2021/06/30 07:40:21;;;;;;;2.88;2.22;;;19.80;99.90;;;;;;5027053;28;20040;-64
2021/06/30 07:42:47;;;;;;;4.88;2.50;;;19.90;99.90;;;;;;5028663;28;20025;-64
2021/06/30 07:45:13;;;;;;;6.60;2.20;;;19.90;99.90;;;;;;5033132;28;20026;-65
2021/06/30 07:47:39;;;;;;;2.90;2.17;;;20.20;99.90;;;;;;5034892;28;20502;-64
2021/06/30 07:50:06;;;;;;;5.28;2.10;;;20.80;99.90;;;;;;5031181;28;20032;-66
2021/06/30 07:52:32;;;;;;;5.05;2.50;;;20.90;99.90;;;;;;5028866;28;20049;-65
2021/06/30 07:54:58;;;;;;;5.25;2.30;;;20.80;99.90;;;;;;5031368;28;20024;-64
2021/06/30 07:57:24;;;;;;;4.95;2.35;;;21.10;99.90;;;;;;5026563;28;20804;-66
2021/06/30 07:59:49;;;;;;;7.47;2.80;;;21.10;99.90;;;;;;5028665;28;20099;-67
2021/06/30 08:02:15;;;;;;;2.53;2.10;;;20.90;99.90;;;;;;5029220;28;20032;-64
2021/06/30 08:04:41;;;;;;;4.38;1.92;;;21.00;99.90;;;;;;5025650;28;20022;-65
2021/06/30 08:07:06;;;;;;;3.72;2.20;;;21.20;99.90;;;;;;5027747;28;20026;-67
2021/06/30 08:09:33;;;;;;;2.63;2.22;;;21.20;99.90;;;;;;5029737;28;20152;-65
2021/06/30 08:12:01;;;;;;;2.45;2.00;;;21.10;99.90;;;;;;5027829;28;20060;-62
2021/06/30 08:14:28;;;;;;;5.43;1.67;;;21.10;99.90;;;;;;5030009;28;20119;-65
2021/06/30 08:16:54;;;;;;;2.40;1.75;;;20.90;99.90;;;;;;5025819;28;20057;-64
2021/06/30 08:19:20;;;;;;;5.15;2.80;;;20.60;99.90;;;;;;5029443;28;20451;-62
2021/06/30 08:21:45;;;;;;;5.07;2.38;;;20.30;99.90;;;;;;5026664;28;20102;-65
2021/06/30 08:24:11;;;;;;;6.43;2.88;;;19.90;99.90;;;;;;5027350;28;20368;-65
2021/06/30 08:26:37;;;;;;;4.38;3.13;;;19.50;99.90;;;;;;5028570;28;20128;-65
2021/06/30 08:29:03;;;;;;;5.80;3.70;;;19.00;99.90;;;;;;5029947;28;20027;-65
2021/06/30 08:31:29;;;;;;;11.02;5.00;;;18.70;99.90;;;;;;5032292;28;20036;-64
2021/06/30 08:33:55;;;;;;;7.50;4.75;;;18.40;99.90;;;;;;5028158;28;20033;-66
2021/06/30 08:36:21;;;;;;;5.85;5.25;;;18.20;99.90;;;;;;5026550;28;20036;-65
2021/06/30 08:38:48;;;;;;;5.88;5.15;;;18.10;99.90;;;;;;5027705;28;20068;-64
2021/06/30 08:41:20;;;;;;;9.90;5.93;;;17.90;99.90;;;;;;5027722;28;20098;-64
2021/06/30 08:43:46;;;;;;;9.27;5.50;;;17.80;99.90;;;;;;5030726;28;20029;-66
2021/06/30 08:46:18;;;;;;;9.52;5.50;;;17.80;99.90;;;;;;5034409;28;20048;-65
2021/06/30 08:48:44;;;;;;;6.05;5.30;;;17.70;99.90;;;;;;5033754;28;20053;-63
2021/06/30 08:51:15;;;;;;;5.13;4.32;;;17.70;99.90;;;;;;5031134;28;20029;-65
2021/06/30 08:53:44;;;;;;;7.13;5.20;;;17.70;99.90;;;;;;5033239;28;20041;-66
2021/06/30 08:56:09;;;;;;;6.40;5.03;;;17.50;99.90;;;;;;5030219;28;20048;-63
2021/06/30 08:58:36;;;;;;;7.07;6.38;;;17.40;99.90;;;;;;5035171;28;20065;-65
2021/06/30 09:01:02;;;;;;;9.20;5.15;;;17.20;99.90;;;;;;5032766;28;20034;-65
2021/06/30 09:03:28;;;;;;;5.80;4.18;;;17.10;99.90;;;;;;5025680;28;20055;-66
2021/06/30 09:08:21;;;;;;;10.52;4.15;;;16.80;99.90;;;;;;5031490;28;20116;-63
2021/06/30 09:10:47;;;;;;;6.10;3.92;;;16.90;99.90;;;;;;5033839;28;20022;-63
2021/06/30 09:13:26;;;;;;;6.07;3.95;;;16.90;99.90;;;;;;5029264;28;20075;-64
2021/06/30 09:15:58;;;;;;;6.20;4.47;;;17.20;99.90;;;;;;5030182;28;20116;-65
2021/06/30 09:18:32;;;;;;;7.50;4.45;;;17.50;99.90;;;;;;5029718;28;20055;-66
2021/06/30 09:21:16;;;;;;;5.15;3.25;;;17.80;99.90;;;;;;5024098;28;20455;-65
2021/06/30 09:24:11;;;;;;;3.97;3.17;;;18.10;99.90;;;;;;5034163;28;20563;-65
2021/06/30 09:26:54;;;;;;;6.28;2.80;;;18.20;99.90;;;;;;5025343;28;20457;-64
2021/06/30 09:29:21;;;;;;;5.90;3.13;;;18.00;99.90;;;;;;5027981;28;20041;-64
2021/06/30 09:31:49;;;;;;;6.38;2.75;;;18.20;99.90;;;;;;5027378;28;20029;-67
2021/06/30 09:34:25;;;;;;;3.45;2.67;;;18.20;99.90;;;;;;5025777;28;20021;-66
2021/06/30 09:36:54;;;;;;;4.07;2.55;;;18.20;99.90;;;;;;5027571;28;20102;-63
2021/06/30 09:39:21;;;;;;;7.07;2.72;;;18.10;99.90;;;;;;5026142;28;20037;-57
2021/06/30 09:41:47;;;;;;;5.30;2.88;;;18.20;99.90;;;;;;5028112;28;20032;-66
2021/06/30 09:44:22;;;;;;;4.50;2.40;;;18.40;99.90;;;;;;5027955;28;20041;-64
2021/06/30 09:46:55;;;;;;;5.00;2.88;;;18.50;99.90;;;;;;5027645;28;20037;-65
2021/06/30 09:49:26;;;;;;;5.00;2.08;;;18.90;99.90;;;;;;5032550;28;20033;-58
2021/06/30 09:52:15;;;;;;;4.40;2.28;;;19.10;99.90;;;;;;5041156;28;20451;-64
2021/06/30 09:54:42;;;;;;;1.83;1.60;;;19.70;99.90;;;;;;5029687;28;20056;-61
2021/06/30 09:57:11;;;;;;;1.38;1.20;;;20.30;99.90;;;;;;5032150;28;20021;-63
2021/06/30 09:59:38;;;;;;;1.30;1.10;;;21.20;99.90;;;;;;5043209;28;20033;-65
2021/06/30 10:02:06;;;;;;;2.92;0.80;;;22.20;99.90;;;;;;5041868;28;20069;-64
2021/06/30 10:04:37;;;;;;;3.33;1.30;;;23.20;99.90;;;;;;5040419;28;20421;-64
2021/06/30 10:07:11;;;;;;;1.25;0.70;;;24.00;99.90;;;;;;5037554;28;20112;-66
2021/06/30 10:09:39;;;;;;;1.45;0.90;;;24.40;99.90;;;;;;5040445;28;20108;-64
2021/06/30 10:12:10;;;;;;;2.08;0.90;;;23.60;99.90;;;;;;5037669;28;20512;-65
2021/06/30 10:14:37;;;;;;;0.75;0.60;;;23.30;99.90;;;;;;5040782;28;20084;-64
2021/06/30 10:17:03;;;;;;;0.88;0.85;;;23.00;99.90;;;;;;5031674;28;20087;-65
2021/06/30 10:19:30;;;;;;;4.57;1.10;;;22.70;99.90;;;;;;5037695;28;20124;-64
2021/06/30 10:21:56;;;;;;;1.08;0.93;;;22.20;99.90;;;;;;5033871;28;20029;-65
2021/06/30 10:24:22;;;;;;;2.53;1.20;;;22.00;99.90;;;;;;5041031;28;20030;-66
2021/06/30 10:26:49;;;;;;;1.13;1.00;;;22.00;99.90;;;;;;5031000;28;20033;-67
2021/06/30 10:29:15;;;;;;;1.30;1.13;;;21.90;99.90;;;;;;5039726;28;20098;-65
2021/06/30 10:31:42;;;;;;;0.88;0.70;;;22.30;99.90;;;;;;5036710;28;20037;-64
2021/06/30 10:34:12;;;;;;;1.83;0.90;;;22.60;99.90;;;;;;5031944;28;20208;-64
2021/06/30 10:36:58;;;;;;;0.95;0.85;;;22.70;99.90;;;;;;5034423;28;20036;-65
2021/06/30 10:39:35;;;;;;;1.60;0.70;;;22.90;99.90;;;;;;5031889;28;20029;-65
2021/06/30 10:42:14;;;;;;;1.45;0.75;;;22.60;99.90;;;;;;5035567;28;20368;-65
2021/06/30 10:44:48;;;;;;;1.10;1.00;;;22.60;99.90;;;;;;5031451;28;20076;-65
2021/06/30 10:47:39;;;;;;;1.27;0.80;;;22.60;99.90;;;;;;5031574;28;20017;-66
2021/06/30 10:50:22;;;;;;;0.73;0.70;;;23.10;99.90;;;;;;5029655;28;20548;-63
2021/06/30 10:52:50;;;;;;;1.92;1.00;;;23.50;99.90;;;;;;5028616;28;20021;-65
2021/06/30 10:58:11;;;;;;;;;;;24.10;99.00;;;;;;5033786;28;20036;-64
2021/06/30 11:00:41;;;;;;;2.97;0.90;;;24.10;99.90;;;;;;5038579;28;19923;-66
2021/06/30 11:03:45;;;;;;;1.58;1.27;;;23.60;99.20;;;;;;5027983;28;20071;-64
2021/06/30 11:06:12;;;;;;;4.07;1.65;;;22.70;99.90;;;;;;4969148;28;20035;-65
2021/06/30 11:08:45;;;;;;;2.13;1.48;;;22.30;99.90;;;;;;5019421;28;20053;-66
2021/06/30 11:11:15;;;;;;;1.80;1.27;;;22.40;99.90;;;;;;5033307;28;20029;-65
2021/06/30 11:13:52;;;;;;;4.57;1.30;;;22.30;99.90;;;;;;5040884;28;20040;-65
2021/06/30 11:16:37;;;;;;;1.15;1.05;;;22.20;99.90;;;;;;5036682;28;20047;-65
2021/06/30 11:19:14;;;;;;;3.30;0.75;;;22.30;99.90;;;;;;5036687;28;20029;-64
2021/06/30 11:21:52;;;;;;;3.08;0.90;;;22.30;99.90;;;;;;5033073;28;20013;-65
2021/06/30 11:24:36;;;;;;;1.40;0.80;;;22.30;99.90;;;;;;5038006;28;20084;-67
2021/06/30 11:27:19;;;;;;;3.92;0.90;;;22.50;99.90;;;;;;5029664;28;20048;-65
2021/06/30 11:29:54;;;;;;;1.53;1.37;;;23.10;99.90;;;;;;5037065;28;20059;-65
2021/06/30 11:35:09;;;;;;;3.78;1.55;;;23.70;98.30;;;;;;5037817;28;20026;-65
2021/06/30 11:37:36;;;;;;;1.92;1.10;;;23.50;99.20;;;;;;5025188;28;20057;-64
2021/06/30 11:40:11;;;;;;;2.45;1.17;;;23.10;98.90;;;;;;5046705;28;20053;-64
2021/06/30 11:42:40;;;;;;;1.27;0.88;;;23.10;99.10;;;;;;5036666;28;20029;-65
2021/06/30 11:45:26;;;;;;;0.95;0.70;;;22.90;99.10;;;;;;5032235;28;20033;-64
2021/06/30 11:47:54;;;;;;;1.08;0.82;;;22.80;99.60;;;;;;5027386;28;20026;-65
2021/06/30 11:50:24;;;;;;;4.13;1.00;;;22.60;99.80;;;;;;5034095;28;20068;-66
2021/06/30 11:52:50;;;;;;;3.63;1.00;;;22.50;99.20;;;;;;5037507;28;20029;-65
2021/06/30 11:55:16;;;;;;;4.55;0.95;;;22.80;99.90;;;;;;5035317;28;20398;-63
2021/06/30 11:58:01;;;;;;;1.95;1.17;;;22.90;99.90;;;;;;5028407;28;20036;-65
2021/06/30 12:00:31;;;;;;;2.15;1.27;;;23.00;99.70;;;;;;5029533;28;20056;-64
2021/06/30 12:02:59;;;;;;;1.90;0.90;;;23.70;99.90;;;;;;5030894;28;20018;-64
2021/06/30 12:05:27;;;;;;;0.75;0.68;;;23.60;97.60;;;;;;5029120;28;20116;-63
2021/06/30 12:07:55;;;;;;;1.10;0.98;;;23.40;98.60;;;;;;5021636;28;20070;-64
2021/06/30 12:10:25;;;;;;;3.60;1.00;;;23.40;98.60;;;;;;5021280;28;20448;-63
2021/06/30 12:12:52;;;;;;;3.22;0.90;;;23.10;98.60;;;;;;5021394;28;20030;-62
2021/06/30 12:15:19;;;;;;;1.88;0.90;;;23.30;98.60;;;;;;5017049;28;20052;-64
2021/06/30 12:17:48;;;;;;;3.78;0.60;;;23.60;98.90;;;;;;5034155;28;20142;-65
2021/06/30 12:20:16;;;;;;;3.25;1.30;;;23.80;99.30;;;;;;5018792;28;20518;-65
2021/06/30 12:22:43;;;;;;;3.35;1.08;;;24.10;96.60;;;;;;5030489;28;20052;-63
2021/06/30 12:25:18;;;;;;;3.63;1.90;;;23.70;98.20;;;;;;5029512;28;20049;-63
2021/06/30 12:27:55;;;;;;;2.45;2.25;;;23.90;96.70;;;;;;5028112;28;20087;-66
2021/06/30 12:30:26;;;;;;;2.30;1.85;;;24.20;96.10;;;;;;5029365;28;20025;-63
2021/06/30 12:33:13;;;;;;;2.90;0.90;;;24.00;96.50;;;;;;5024589;28;20030;-65
2021/06/30 12:35:57;;;;;;;7.32;2.38;;;23.90;95.70;;;;;;5028241;28;20163;-65
2021/06/30 12:38:31;;;;;;;10.60;9.60;;;23.90;96.50;;;;;;5031648;28;20041;-67
2021/06/30 12:41:10;;;;;;;3.67;1.67;;;24.00;95.70;;;;;;5037756;28;20025;-66
2021/06/30 12:43:39;;;;;;;19.60;16.98;;;23.70;96.70;;;;;;5030135;28;20078;-65
2021/06/30 12:46:17;;;;;;;2.28;2.05;;;23.70;96.40;;;;;;5033051;28;20025;-64
2021/06/30 12:48:44;;;;;;;7.50;6.75;;;23.80;95.30;;;;;;5038617;28;20029;-64
2021/06/30 12:51:12;;;;;;;3.33;2.00;;;23.60;97.00;;;;;;5036700;28;20025;-63
2021/06/30 12:53:40;;;;;;;2.25;1.38;;;23.30;96.30;;;;;;5037883;28;20025;-65